Time;durP1;ratioP1;P1;durP2;ratioP2;P2;SDS_P1;SDS_P2;PMS_P1;PMS_P2;Temp;Humidity;BMP_temperature;BMP_pressure;BME280_temperature;BME280_humidity;BME280_pressure;Samples;Min_cycle;Max_cycle;Signal;HPM_P1;HPM_P2
2023/05/23 00:00:28;;;;;;;;;;;;;;;21.17;45.35;100621.60;103450;1291;72642;-83
2023/05/23 00:02:54;;;;;;;;;;;;;;;21.17;45.46;100621.75;103536;1285;62219;-82
2023/05/23 00:05:19;;;;;;;;;;;;;;;21.17;45.43;100621.39;103536;1286;63451;-83
2023/05/23 00:07:44;;;;;;;;;;;;;;;21.17;45.39;100621.77;103569;1288;62204;-84
2023/05/23 00:10:10;;;;;;;;;;;;;;;21.17;45.50;100621.77;103578;1286;62179;-82
2023/05/23 00:12:41;;;;;;;;;;;;;;;21.17;45.47;100620.52;103589;1285;72596;-83
2023/05/23 00:15:08;;;;;;;;;;;;;;;21.17;45.50;100618.58;103501;1284;76281;-83
2023/05/23 00:17:36;;;;;;;;;;;;;;;21.17;45.45;100615.90;103609;1288;62432;-83
2023/05/23 00:20:02;;;;;;;;;;;;;;;21.16;45.50;100615.20;103546;1286;62164;-83
2023/05/23 00:22:28;;;;;;;;;;;;;;;21.16;45.54;100614.83;103874;1286;62192;-82
2023/05/23 00:24:53;;;;;;;;;;;;;;;21.16;45.56;100611.41;103498;1291;62153;-82
2023/05/23 00:27:19;;;;;;;;;;;;;;;21.17;45.50;100610.36;103524;1285;62811;-82
2023/05/23 00:29:44;;;;;;;;;;;;;;;21.16;45.55;100608.05;103504;1291;62264;-84
2023/05/23 00:32:10;;;;;;;;;;;;;;;21.16;45.68;100610.71;103576;1286;62203;-82
2023/05/23 00:34:36;;;;;;;;;;;;;;;21.16;45.71;100611.61;103518;1285;62194;-82
2023/05/23 00:37:03;;;;;;;;;;;;;;;21.16;45.70;100609.10;103549;1285;63396;-83
2023/05/23 00:39:30;;;;;;;;;;;;;;;21.16;45.65;100606.27;103524;1286;62130;-82
2023/05/23 00:41:56;;;;;;;;;;;;;;;21.16;45.66;100601.61;103646;1286;62103;-83
2023/05/23 00:44:22;;;;;;;;;;;;;;;21.16;45.69;100598.39;103610;1286;62200;-83
2023/05/23 00:46:50;;;;;;;;;;;;;;;21.16;45.63;100596.30;103609;1285;62194;-82
2023/05/23 00:49:18;;;;;;;;;;;;;;;21.16;45.66;100597.34;103405;1292;62347;-83
2023/05/23 00:51:45;;;;;;;;;;;;;;;21.15;45.71;100600.05;103580;1285;63280;-82
2023/05/23 00:54:10;;;;;;;;;;;;;;;21.16;45.64;100600.73;103517;1291;63385;-82
2023/05/23 00:56:35;;;;;;;;;;;;;;;21.15;45.69;100598.65;103517;1285;62214;-82
2023/05/23 00:59:01;;;;;;;;;;;;;;;21.15;45.74;100600.98;103510;1291;62284;-82
2023/05/23 01:01:35;;;;;;;;;;;;;;;21.15;45.73;100604.77;103581;1285;62099;-82
2023/05/23 01:04:03;;;;;;;;;;;;;;;21.15;45.59;100599.89;103587;1285;62194;-83
2023/05/23 01:06:29;;;;;;;;;;;;;;;21.15;45.73;100602.77;103574;1284;62432;-83
2023/05/23 01:08:55;;;;;;;;;;;;;;;21.15;45.66;100603.13;103508;1286;63357;-83
2023/05/23 01:11:24;;;;;;;;;;;;;;;21.15;45.69;100603.13;103514;1291;62781;-83
2023/05/23 01:13:56;;;;;;;;;;;;;;;21.15;45.76;100603.31;103542;1288;74712;-83
2023/05/23 01:16:29;;;;;;;;;;;;;;;21.15;45.63;100606.73;103467;1285;76487;-84
2023/05/23 01:18:58;;;;;;;;;;;;;;;21.15;45.86;100604.95;103643;1284;62190;-83
2023/05/23 01:21:23;;;;;;;;;;;;;;;21.14;45.65;100609.98;103654;1286;62133;-82
2023/05/23 01:23:54;;;;;;;;;;;;;;;21.14;45.86;100609.45;103506;1285;62284;-84
2023/05/23 01:26:21;;;;;;;;;;;;;;;21.14;45.76;100603.75;103649;1285;74960;-82
2023/05/23 01:28:48;;;;;;;;;;;;;;;21.14;45.74;100606.77;103571;1285;62196;-83
2023/05/23 01:31:13;;;;;;;;;;;;;;;21.14;45.83;100608.58;103499;1288;62213;-83
2023/05/23 01:33:39;;;;;;;;;;;;;;;21.14;45.78;100611.07;103579;1285;63362;-83
2023/05/23 01:36:04;;;;;;;;;;;;;;;21.14;45.78;100609.13;103535;1285;62303;-84
2023/05/23 01:38:30;;;;;;;;;;;;;;;21.14;45.72;100608.39;103628;1291;62203;-81
2023/05/23 01:40:55;;;;;;;;;;;;;;;21.13;45.74;100606.65;103658;1285;62195;-83
2023/05/23 01:43:21;;;;;;;;;;;;;;;21.13;45.85;100607.89;103531;1286;63290;-82
2023/05/23 01:45:47;;;;;;;;;;;;;;;21.14;45.88;100605.20;103524;1285;62197;-84
2023/05/23 01:48:12;;;;;;;;;;;;;;;21.13;45.84;100601.14;103472;1291;62703;-83
2023/05/23 01:50:38;;;;;;;;;;;;;;;21.13;45.81;100600.61;103615;1285;62196;-83
2023/05/23 01:53:04;;;;;;;;;;;;;;;21.13;45.80;100600.06;103472;1290;62281;-83
2023/05/23 01:55:30;;;;;;;;;;;;;;;21.13;45.84;100599.72;103510;1285;62282;-83
2023/05/23 01:57:55;;;;;;;;;;;;;;;21.13;45.84;100597.04;103624;1284;72432;-83
2023/05/23 02:00:21;;;;;;;;;;;;;;;21.13;45.97;100597.95;103533;1288;62217;-83
2023/05/23 02:02:47;;;;;;;;;;;;;;;21.12;45.82;100596.20;103544;1285;63448;-82
2023/05/23 02:05:12;;;;;;;;;;;;;;;21.12;45.83;100597.79;103564;1291;62242;-82
2023/05/23 02:07:38;;;;;;;;;;;;;;;21.12;45.79;100594.22;103544;1286;62201;-82
2023/05/23 02:10:03;;;;;;;;;;;;;;;21.12;45.98;100590.66;103539;1286;62454;-83
2023/05/23 02:12:29;;;;;;;;;;;;;;;21.12;45.89;100593.17;103590;1288;62653;-82
2023/05/23 02:14:54;;;;;;;;;;;;;;;21.11;45.84;100593.04;103613;1285;62136;-82
2023/05/23 02:17:23;;;;;;;;;;;;;;;21.12;45.95;100589.79;103359;1285;62654;-83
2023/05/23 02:19:49;;;;;;;;;;;;;;;21.12;45.92;100589.98;103530;1285;72544;-83
2023/05/23 02:22:15;;;;;;;;;;;;;;;21.11;45.75;100593.77;103343;1287;62133;-82
2023/05/23 02:24:40;;;;;;;;;;;;;;;21.11;45.94;100596.45;103562;1285;62278;-83
2023/05/23 02:27:08;;;;;;;;;;;;;;;21.12;45.76;100597.14;103529;1285;62163;-83
2023/05/23 02:29:34;;;;;;;;;;;;;;;21.11;45.85;100599.50;103492;1284;62112;-83
2023/05/23 02:32:00;;;;;;;;;;;;;;;21.11;45.87;100595.02;103485;1286;62206;-83
2023/05/23 02:34:26;;;;;;;;;;;;;;;21.10;45.96;100597.91;103506;1285;62255;-82
2023/05/23 02:36:53;;;;;;;;;;;;;;;21.11;46.02;100600.41;103501;1291;62214;-83
2023/05/23 02:39:18;;;;;;;;;;;;;;;21.10;45.83;100600.05;103515;1285;62240;-83
2023/05/23 02:41:44;;;;;;;;;;;;;;;21.11;45.91;100599.14;103500;1285;63242;-83
2023/05/23 02:44:10;;;;;;;;;;;;;;;21.10;45.94;100599.71;103582;1284;76695;-83
2023/05/23 02:46:35;;;;;;;;;;;;;;;21.10;45.86;100598.98;103542;1285;62755;-83
2023/05/23 02:49:01;;;;;;;;;;;;;;;21.11;45.91;100600.21;103504;1290;62236;-83
2023/05/23 02:51:26;;;;;;;;;;;;;;;21.10;45.93;100599.54;103468;1285;62195;-83
2023/05/23 02:53:52;;;;;;;;;;;;;;;21.10;45.83;100599.35;103682;1285;62198;-83
2023/05/23 02:56:17;;;;;;;;;;;;;;;21.10;45.82;100595.79;103534;1286;75146;-83
2023/05/23 02:58:43;;;;;;;;;;;;;;;21.10;45.92;100597.59;103503;1291;62147;-83
2023/05/23 03:01:08;;;;;;;;;;;;;;;21.10;45.84;100597.05;103522;1286;62206;-83
2023/05/23 03:03:34;;;;;;;;;;;;;;;21.10;45.91;100597.04;103588;1285;62499;-83
2023/05/23 03:06:00;;;;;;;;;;;;;;;21.10;45.90;100597.05;103539;1286;62166;-83
2023/05/23 03:08:26;;;;;;;;;;;;;;;21.10;45.87;100599.02;103544;1285;76252;-84
2023/05/23 03:10:54;;;;;;;;;;;;;;;21.10;45.90;100599.73;103472;1285;62278;-83
2023/05/23 03:13:21;;;;;;;;;;;;;;;21.10;45.89;100602.61;103645;1285;62188;-83
2023/05/23 03:15:46;;;;;;;;;;;;;;;21.10;45.87;100601.71;103532;1287;63248;-83
2023/05/23 03:18:11;;;;;;;;;;;;;;;21.10;46.08;100600.79;103484;1286;62216;-83
2023/05/23 03:20:37;;;;;;;;;;;;;;;21.10;45.83;100595.59;103479;1284;62291;-85
2023/05/23 03:23:02;;;;;;;;;;;;;;;21.11;45.98;100600.04;103543;1285;62280;-83
2023/05/23 03:25:28;;;;;;;;;;;;;;;21.10;45.85;100602.57;103515;1288;62105;-83
2023/05/23 03:27:53;;;;;;;;;;;;;;;21.10;46.04;100605.59;103500;1285;62306;-82
2023/05/23 03:30:19;;;;;;;;;;;;;;;21.11;46.01;100611.11;103544;1285;62181;-83
2023/05/23 03:32:45;;;;;;;;;;;;;;;21.10;46.05;100612.58;103641;1284;62300;-82
2023/05/23 03:35:11;;;;;;;;;;;;;;;21.10;46.09;100612.40;103727;1285;62204;-82
2023/05/23 03:37:36;;;;;;;;;;;;;;;21.11;46.10;100617.56;103483;1291;62267;-83
2023/05/23 03:40:02;;;;;;;;;;;;;;;21.11;46.04;100621.31;103492;1285;62247;-83
2023/05/23 03:42:28;;;;;;;;;;;;;;;21.11;46.01;100621.48;103622;1285;62437;-82
2023/05/23 03:44:53;;;;;;;;;;;;;;;21.11;46.00;100622.92;103664;1284;62270;-83
2023/05/23 03:47:19;;;;;;;;;;;;;;;21.12;46.01;100624.69;103668;1285;62256;-83
2023/05/23 03:49:45;;;;;;;;;;;;;;;21.12;45.95;100629.31;103695;1291;62204;-82
2023/05/23 03:52:10;;;;;;;;;;;;;;;21.12;46.02;100629.85;103495;1285;62312;-83
2023/05/23 03:54:36;;;;;;;;;;;;;;;21.12;46.01;100635.02;103607;1288;62191;-83
2023/05/23 03:57:02;;;;;;;;;;;;;;;21.12;46.00;100633.41;103532;1285;63285;-82
2023/05/23 03:59:27;;;;;;;;;;;;;;;21.12;45.87;100641.46;103660;1291;63283;-82
2023/05/23 04:01:53;;;;;;;;;;;;;;;21.12;45.99;100647.54;103550;1285;62177;-83
2023/05/23 04:04:19;;;;;;;;;;;;;;;21.12;46.13;100655.39;104000;1286;62198;-81
2023/05/23 04:06:46;;;;;;;;;;;;;;;21.13;45.91;100654.48;103773;1284;76101;-83
2023/05/23 04:09:12;;;;;;;;;;;;;;;21.13;45.85;100654.11;103554;1288;62267;-82
2023/05/23 04:11:38;;;;;;;;;;;;;;;21.13;45.83;100659.30;103759;1285;62176;-84
2023/05/23 04:14:04;;;;;;;;;;;;;;;21.13;45.89;100660.58;103649;1285;62208;-83
2023/05/23 04:16:31;;;;;;;;;;;;;;;21.13;45.96;100663.92;103642;1287;62371;-83
2023/05/23 04:18:57;;;;;;;;;;;;;;;21.14;45.98;100664.76;103679;1285;62679;-83
2023/05/23 04:21:23;;;;;;;;;;;;;;;21.15;46.00;100666.68;103531;1284;62283;-81
2023/05/23 04:23:48;;;;;;;;;;;;;;;21.15;45.76;100658.99;103609;1286;62198;-82
2023/05/23 04:26:14;;;;;;;;;;;;;;;21.16;45.89;100662.86;103641;1286;62156;-84
2023/05/23 04:28:39;;;;;;;;;;;;;;;21.15;45.96;100659.48;103726;1286;62216;-83
2023/05/23 04:31:05;;;;;;;;;;;;;;;21.16;45.82;100660.33;103486;1285;62147;-83
2023/05/23 04:33:32;;;;;;;;;;;;;;;21.16;45.94;100659.93;103687;1286;62646;-82
2023/05/23 04:35:58;;;;;;;;;;;;;;;21.17;46.00;100660.29;103459;1285;63583;-83
2023/05/23 04:38:26;;;;;;;;;;;;;;;21.17;45.79;100666.15;103586;1285;62175;-83
2023/05/23 04:40:52;;;;;;;;;;;;;;;21.17;45.81;100664.71;103647;1285;62227;-82
2023/05/23 04:43:18;;;;;;;;;;;;;;;21.18;45.91;100668.94;103489;1285;62243;-83
2023/05/23 04:45:46;;;;;;;;;;;;;;;21.19;45.91;100670.52;103524;1285;62283;-82
2023/05/23 04:48:15;;;;;;;;;;;;;;;21.19;45.93;100670.10;103556;1285;62259;-83
2023/05/23 04:50:41;;;;;;;;;;;;;;;21.20;45.82;100668.95;103708;1285;62217;-82
2023/05/23 04:53:07;;;;;;;;;;;;;;;21.20;45.76;100672.16;103690;1284;62194;-82
2023/05/23 04:55:33;;;;;;;;;;;;;;;21.22;45.82;100670.26;103775;1285;62223;-82
2023/05/23 04:57:58;;;;;;;;;;;;;;;21.23;45.83;100676.08;103708;1285;63320;-83
2023/05/23 05:00:24;;;;;;;;;;;;;;;21.23;45.87;100673.55;103564;1291;62161;-83
2023/05/23 05:02:49;;;;;;;;;;;;;;;21.25;45.90;100674.17;103835;1284;62772;-82
2023/05/23 05:05:15;;;;;;;;;;;;;;;21.26;45.66;100673.20;103799;1285;62166;-82
2023/05/23 05:07:40;;;;;;;;;;;;;;;21.28;45.81;100672.54;103784;1291;62131;-82
2023/05/23 05:10:08;;;;;;;;;;;;;;;21.28;45.85;100669.45;104172;1284;62190;-82
2023/05/23 05:12:33;;;;;;;;;;;;;;;21.29;45.77;100667.93;104102;1284;62197;-81
2023/05/23 05:14:59;;;;;;;;;;;;;;;21.31;45.77;100667.67;103811;1285;63053;-82
2023/05/23 05:17:25;;;;;;;;;;;;;;;21.32;45.89;100671.52;103733;1291;62201;-82
2023/05/23 05:19:50;;;;;;;;;;;;;;;21.33;45.90;100666.09;103705;1285;62191;-82
2023/05/23 05:22:15;;;;;;;;;;;;;;;21.34;45.86;100666.36;103852;1291;63306;-82
2023/05/23 05:24:41;;;;;;;;;;;;;;;21.35;46.01;100664.65;103750;1286;62338;-82
2023/05/23 05:27:10;;;;;;;;;;;;;;;21.36;45.77;100664.95;103607;1285;62494;-82
2023/05/23 05:29:36;;;;;;;;;;;;;;;21.37;45.70;100665.59;103513;1285;73451;-83
2023/05/23 05:32:02;;;;;;;;;;;;;;;21.38;45.79;100662.98;103804;1291;62521;-83
2023/05/23 05:34:28;;;;;;;;;;;;;;;21.38;45.70;100664.23;104147;1286;60872;-80
2023/05/23 05:36:55;;;;;;;;;;;;;;;21.39;45.78;100663.27;103944;1285;62181;-82
2023/05/23 05:39:22;;;;;;;;;;;;;;;21.40;45.76;100664.11;104152;1285;62284;-81
2023/05/23 05:41:47;;;;;;;;;;;;;;;21.41;45.80;100661.15;103940;1288;62198;-82
2023/05/23 05:44:13;;;;;;;;;;;;;;;21.42;45.75;100659.83;103922;1284;62086;-81
2023/05/23 05:46:38;;;;;;;;;;;;;;;21.42;45.66;100659.42;104006;1284;62211;-81
2023/05/23 05:49:04;;;;;;;;;;;;;;;21.44;45.53;100662.03;104157;1285;62221;-81
2023/05/23 05:51:30;;;;;;;;;;;;;;;21.44;45.71;100661.82;104113;1285;62886;-82
2023/05/23 05:53:57;;;;;;;;;;;;;;;21.45;45.69;100662.28;103893;1285;62099;-81
2023/05/23 05:56:23;;;;;;;;;;;;;;;21.46;45.66;100660.96;104008;1288;62112;-83
2023/05/23 05:58:48;;;;;;;;;;;;;;;21.47;45.54;100658.77;103916;1284;62359;-81
2023/05/23 06:01:14;;;;;;;;;;;;;;;21.47;45.54;100661.04;104007;1285;62228;-81
2023/05/23 06:03:40;;;;;;;;;;;;;;;21.48;45.61;100662.44;104018;1286;62271;-81
2023/05/23 06:06:05;;;;;;;;;;;;;;;21.49;45.64;100666.86;104072;1288;62296;-82
2023/05/23 06:08:31;;;;;;;;;;;;;;;21.49;45.56;100666.27;104106;1284;62085;-81
2023/05/23 06:10:56;;;;;;;;;;;;;;;21.50;45.52;100664.45;104076;1285;62232;-81
2023/05/23 06:13:22;;;;;;;;;;;;;;;21.51;45.54;100665.11;104130;1285;62228;-81
2023/05/23 06:15:47;;;;;;;;;;;;;;;21.51;45.48;100668.48;104005;1288;63014;-82
2023/05/23 06:18:12;;;;;;;;;;;;;;;21.51;45.46;100666.86;103936;1285;62102;-82
2023/05/23 06:20:38;;;;;;;;;;;;;;;21.52;45.45;100667.17;103711;1288;62978;-82
2023/05/23 06:23:04;;;;;;;;;;;;;;;21.52;45.34;100669.52;104007;1285;62120;-82
2023/05/23 06:25:30;;;;;;;;;;;;;;;21.51;45.36;100670.42;104290;1290;62230;-80
2023/05/23 06:27:55;;;;;;;;;;;;;;;21.51;45.38;100667.41;104378;1291;62130;-80
2023/05/23 06:30:22;;;;;;;;;;;;;;;21.50;45.30;100670.85;104120;1285;61390;-81
2023/05/23 06:32:47;;;;;;;;;;;;;;;21.50;45.27;100667.98;103847;1288;62059;-81
2023/05/23 06:35:13;;;;;;;;;;;;;;;21.51;45.18;100668.86;103885;1285;62375;-82
2023/05/23 06:37:42;;;;;;;;;;;;;;;21.51;45.07;100670.10;103797;1285;62225;-81
2023/05/23 06:40:08;;;;;;;;;;;;;;;21.51;45.01;100671.73;103698;1285;75231;-82
2023/05/23 06:42:34;;;;;;;;;;;;;;;21.50;44.81;100666.55;103690;1293;63198;-81
2023/05/23 06:44:59;;;;;;;;;;;;;;;21.51;44.70;100665.80;103957;1285;62063;-81
2023/05/23 06:47:25;;;;;;;;;;;;;;;21.51;44.66;100664.21;103728;1285;62168;-83
2023/05/23 06:49:50;;;;;;;;;;;;;;;21.50;44.48;100663.33;103993;1291;62768;-82
2023/05/23 06:52:15;;;;;;;;;;;;;;;21.50;44.48;100660.10;104020;1284;75181;-82
2023/05/23 06:54:41;;;;;;;;;;;;;;;21.50;44.60;100654.04;104181;1285;63379;-82
2023/05/23 06:57:06;;;;;;;;;;;;;;;21.50;44.60;100655.81;104146;1285;62214;-82
2023/05/23 06:59:32;;;;;;;;;;;;;;;21.50;44.42;100646.51;104195;1285;62128;-82
2023/05/23 07:01:57;;;;;;;;;;;;;;;21.50;44.37;100642.02;104311;1285;62210;-82
2023/05/23 07:04:23;;;;;;;;;;;;;;;21.51;44.30;100642.00;103829;1286;62236;-82
2023/05/23 07:06:49;;;;;;;;;;;;;;;21.51;44.21;100637.70;103357;1285;747530;-82
2023/05/23 07:09:15;;;;;;;;;;;;;;;21.52;44.09;100639.06;104208;1284;62185;-80
2023/05/23 07:11:40;;;;;;;;;;;;;;;21.52;44.07;100635.84;103964;1291;59948;-82
2023/05/23 07:14:06;;;;;;;;;;;;;;;21.51;43.95;100631.55;103897;1285;62238;-81
2023/05/23 07:16:32;;;;;;;;;;;;;;;21.51;43.87;100632.62;104145;1285;62190;-81
2023/05/23 07:19:00;;;;;;;;;;;;;;;21.51;43.66;100631.38;103978;1285;62045;-82
2023/05/23 07:21:25;;;;;;;;;;;;;;;21.52;43.64;100628.83;104061;1285;62029;-82
2023/05/23 07:23:51;;;;;;;;;;;;;;;21.52;43.72;100628.99;104135;1286;62206;-82
2023/05/23 07:26:16;;;;;;;;;;;;;;;21.52;43.57;100628.09;104399;1284;62114;-82
2023/05/23 07:28:42;;;;;;;;;;;;;;;21.53;43.66;100622.52;104225;1285;62122;-82
2023/05/23 07:31:08;;;;;;;;;;;;;;;21.53;43.58;100623.77;104199;1291;62237;-82
2023/05/23 07:33:34;;;;;;;;;;;;;;;21.52;43.49;100625.94;104068;1291;62206;-82
2023/05/23 07:35:59;;;;;;;;;;;;;;;21.52;43.53;100624.67;104079;1286;72545;-81
2023/05/23 07:38:52;;;;;;;;;;;;;;;21.53;43.40;100622.50;103923;1285;62265;-82
2023/05/23 07:41:17;;;;;;;;;;;;;;;21.53;43.41;100623.92;103312;1297;62138;-82
2023/05/23 07:43:43;;;;;;;;;;;;;;;21.53;43.30;100626.27;103814;1295;62376;-82
2023/05/23 07:46:08;;;;;;;;;;;;;;;21.53;43.25;100624.10;103774;1296;62405;-81
2023/05/23 07:48:34;;;;;;;;;;;;;;;21.55;43.58;100625.95;103985;1291;62284;-82
2023/05/23 07:50:59;;;;;;;;;;;;;;;21.56;43.77;100629.25;103637;1291;62251;-82
2023/05/23 07:53:25;;;;;;;;;;;;;;;21.57;43.77;100630.59;103668;1293;62083;-82
2023/05/23 07:55:51;;;;;;;;;;;;;;;21.58;43.75;100634.80;103851;1291;62217;-81
2023/05/23 07:58:16;;;;;;;;;;;;;;;21.58;43.68;100633.89;104442;1291;62217;-81
2023/05/23 08:00:43;;;;;;;;;;;;;;;21.59;43.60;100634.58;104256;1291;62284;-81
2023/05/23 08:03:10;;;;;;;;;;;;;;;21.59;43.62;100636.70;103930;1291;62139;-81
2023/05/23 08:05:36;;;;;;;;;;;;;;;21.59;43.65;100630.60;106146;1291;60165;-82
2023/05/23 08:08:01;;;;;;;;;;;;;;;21.59;43.58;100628.28;105760;1291;60057;-82
2023/05/23 08:10:28;;;;;;;;;;;;;;;21.60;43.54;100625.38;103584;1294;62355;-81
2023/05/23 08:12:55;;;;;;;;;;;;;;;21.61;43.68;100622.45;103513;1291;62307;-81
2023/05/23 08:15:23;;;;;;;;;;;;;;;21.61;43.65;100624.58;103631;1291;62782;-81
2023/05/23 08:17:49;;;;;;;;;;;;;;;21.62;43.60;100620.42;103468;1285;62103;-81
2023/05/23 08:20:14;;;;;;;;;;;;;;;21.62;43.62;100620.42;104042;1285;63887;-81
2023/05/23 08:22:40;;;;;;;;;;;;;;;21.62;43.59;100617.73;104483;1287;62208;-81
2023/05/23 08:25:06;;;;;;;;;;;;;;;21.62;43.48;100617.76;104259;1285;62270;-81
2023/05/23 08:27:34;;;;;;;;;;;;;;;21.62;43.56;100616.30;103914;1285;62080;-81
2023/05/23 08:30:01;;;;;;;;;;;;;;;21.62;43.43;100614.52;103931;1284;73499;-83
2023/05/23 08:32:27;;;;;;;;;;;;;;;21.62;43.63;100613.43;103989;1286;76255;-83
2023/05/23 08:34:53;;;;;;;;;;;;;;;21.62;43.44;100607.55;104027;1285;62206;-82
2023/05/23 08:37:18;;;;;;;;;;;;;;;21.61;43.41;100613.65;104022;1284;62172;-82
2023/05/23 08:39:47;;;;;;;;;;;;;;;21.60;43.52;100610.48;104120;1285;62214;-81
2023/05/23 08:42:13;;;;;;;;;;;;;;;21.60;43.52;100611.91;103993;1285;62219;-82
2023/05/23 08:44:39;;;;;;;;;;;;;;;21.60;43.59;100613.86;104124;1285;62841;-82
2023/05/23 08:47:05;;;;;;;;;;;;;;;21.60;43.50;100610.70;104087;1285;62167;-82
2023/05/23 08:49:31;;;;;;;;;;;;;;;21.60;43.51;100611.23;103929;1285;62614;-82
2023/05/23 08:51:58;;;;;;;;;;;;;;;21.59;43.41;100610.21;103724;1290;62196;-83
2023/05/23 08:54:25;;;;;;;;;;;;;;;21.59;43.58;100614.48;103840;1288;63387;-83
2023/05/23 08:56:51;;;;;;;;;;;;;;;21.59;43.61;100614.67;103830;1285;63308;-82
2023/05/23 08:59:16;;;;;;;;;;;;;;;21.59;43.52;100604.30;103698;1285;62220;-83
2023/05/23 09:01:42;;;;;;;;;;;;;;;21.59;43.49;100605.59;103837;1285;62109;-82
2023/05/23 09:04:10;;;;;;;;;;;;;;;21.59;43.43;100605.59;103842;1285;62203;-82
2023/05/23 09:06:35;;;;;;;;;;;;;;;21.58;43.41;100606.71;103627;1287;62083;-83
2023/05/23 09:09:03;;;;;;;;;;;;;;;21.58;43.49;100599.41;103760;1285;62328;-82
2023/05/23 09:11:28;;;;;;;;;;;;;;;21.57;43.56;100600.35;104185;1285;62115;-82
2023/05/23 09:13:54;;;;;;;;;;;;;;;21.57;43.49;100593.72;104448;1289;62152;-82
2023/05/23 09:16:20;;;;;;;;;;;;;;;21.57;43.41;100599.09;104440;1284;62063;-82
2023/05/23 09:18:46;;;;;;;;;;;;;;;21.57;43.48;100595.70;104245;1288;62203;-83
2023/05/23 09:21:12;;;;;;;;;;;;;;;21.58;43.46;100595.11;103893;1285;63631;-82
2023/05/23 09:23:39;;;;;;;;;;;;;;;21.57;43.45;100590.49;103530;1285;62169;-83
2023/05/23 09:26:05;;;;;;;;;;;;;;;21.57;43.56;100601.41;103728;1285;63393;-82
2023/05/23 09:28:35;;;;;;;;;;;;;;;21.57;43.50;100590.89;103561;1285;62080;-82
2023/05/23 09:31:02;;;;;;;;;;;;;;;21.56;43.56;100589.13;103735;1288;62103;-82
2023/05/23 09:33:40;;;;;;;;;;;;;;;21.56;43.50;100588.42;103698;1286;75316;-82
2023/05/23 09:36:06;;;;;;;;;;;;;;;21.55;43.51;100585.61;103731;1285;62210;-82
2023/05/23 09:38:34;;;;;;;;;;;;;;;21.55;43.53;100579.92;103563;1288;62114;-83
2023/05/23 09:40:59;;;;;;;;;;;;;;;21.54;43.56;100584.27;103866;1285;73501;-83
2023/05/23 09:43:25;;;;;;;;;;;;;;;21.53;43.51;100580.06;103653;1288;64258;-82
2023/05/23 09:45:52;;;;;;;;;;;;;;;21.53;43.48;100578.45;103533;1285;62210;-83
2023/05/23 09:48:20;;;;;;;;;;;;;;;21.53;43.53;100577.74;103654;1285;62208;-83
2023/05/23 09:50:50;;;;;;;;;;;;;;;21.52;43.42;100579.21;103653;1286;72463;-84
2023/05/23 09:53:39;;;;;;;;;;;;;;;21.52;43.53;100581.89;103873;1285;75824;-83
2023/05/23 09:56:04;;;;;;;;;;;;;;;21.52;43.47;100579.41;102981;1296;62092;-84
2023/05/23 09:58:30;;;;;;;;;;;;;;;21.51;43.42;100577.83;103262;1294;62199;-83
2023/05/23 10:00:56;;;;;;;;;;;;;;;21.51;43.38;100582.49;103391;1294;62136;-83
2023/05/23 10:03:23;;;;;;;;;;;;;;;21.51;43.37;100577.66;103493;1294;62276;-83
2023/05/23 10:05:51;;;;;;;;;;;;;;;21.51;43.51;100573.72;103441;1294;62058;-84
2023/05/23 10:08:28;;;;;;;;;;;;;;;21.52;43.33;100576.38;103508;1295;63737;-83
2023/05/23 10:10:57;;;;;;;;;;;;;;;21.52;43.45;100574.41;103212;1294;73346;-83
2023/05/23 10:13:26;;;;;;;;;;;;;;;21.52;43.41;100572.62;103509;1296;75272;-83
2023/05/23 10:15:54;;;;;;;;;;;;;;;21.52;43.44;100567.20;103591;1294;63080;-83
2023/05/23 10:18:20;;;;;;;;;;;;;;;21.52;43.47;100577.40;103810;1294;62119;-83
2023/05/23 10:20:48;;;;;;;;;;;;;;;21.53;43.47;100571.11;103128;1293;62224;-83
2023/05/23 10:23:14;;;;;;;;;;;;;;;21.53;43.50;100569.14;102947;1294;75467;-84
2023/05/23 10:25:40;;;;;;;;;;;;;;;21.54;43.52;100563.38;103017;1294;62404;-83
2023/05/23 10:28:07;;;;;;;;;;;;;;;21.53;43.46;100561.44;103196;1295;62199;-84
2023/05/23 10:30:34;;;;;;;;;;;;;;;21.53;43.50;100561.98;102913;1294;62319;-84
2023/05/23 10:32:59;;;;;;;;;;;;;;;21.53;43.44;100561.63;103051;1285;62095;-84
2023/05/23 10:35:46;;;;;;;;;;;;;;;21.52;43.54;100553.61;103567;1285;62175;-84
2023/05/23 10:38:14;;;;;;;;;;;;;;;21.52;43.48;100561.83;103502;1291;62204;-83
2023/05/23 10:40:56;;;;;;;;;;;;;;;21.52;43.47;100560.06;103552;1285;73561;-83
2023/05/23 10:43:28;;;;;;;;;;;;;;;21.52;43.32;100557.23;103543;1290;76242;-84
2023/05/23 10:45:53;;;;;;;;;;;;;;;21.52;43.40;100558.86;103599;1291;63242;-84
2023/05/23 10:48:24;;;;;;;;;;;;;;;21.51;43.48;100555.46;103791;1288;62229;-82
2023/05/23 10:51:03;;;;;;;;;;;;;;;21.51;43.45;100554.05;103899;1286;73533;-82
2023/05/23 10:53:29;;;;;;;;;;;;;;;21.51;43.51;100553.73;103736;1286;75272;-84
2023/05/23 10:55:55;;;;;;;;;;;;;;;21.51;43.50;100548.15;103602;1290;62186;-83
2023/05/23 10:58:21;;;;;;;;;;;;;;;21.51;43.50;100550.99;103593;1288;62104;-83
2023/05/23 11:00:55;;;;;;;;;;;;;;;21.51;43.52;100551.55;103467;1291;62219;-83
2023/05/23 11:03:35;;;;;;;;;;;;;;;21.51;43.53;100548.52;103482;1286;75323;-84
2023/05/23 11:06:01;;;;;;;;;;;;;;;21.51;43.54;100546.53;103486;1287;62105;-84
2023/05/23 11:08:28;;;;;;;;;;;;;;;21.51;43.65;100544.41;103464;1288;62208;-83
2023/05/23 11:11:03;;;;;;;;;;;;;;;21.51;43.57;100546.36;103772;1288;72639;-82
2023/05/23 11:13:47;;;;;;;;;;;;;;;21.51;43.59;100545.26;103774;1288;76339;-83
2023/05/23 11:16:27;;;;;;;;;;;;;;;21.51;43.54;100540.79;103808;1288;62277;-83
2023/05/23 11:19:11;;;;;;;;;;;;;;;21.51;43.56;100541.91;103671;1286;62095;-83
2023/05/23 11:21:36;;;;;;;;;;;;;;;21.51;43.67;100535.61;104260;1293;73367;-83
2023/05/23 11:24:02;;;;;;;;;;;;;;;21.51;43.67;100539.17;103634;1286;62229;-84
2023/05/23 11:26:28;;;;;;;;;;;;;;;21.53;43.73;100538.35;103451;1291;62145;-85
2023/05/23 11:29:02;;;;;;;;;;;;;;;21.52;43.78;100534.41;103676;1291;63342;-83
2023/05/23 11:31:27;;;;;;;;;;;;;;;21.53;43.79;100531.34;103436;1288;72305;-83
2023/05/23 11:33:54;;;;;;;;;;;;;;;21.53;43.76;100529.53;103703;1287;62186;-83
2023/05/23 11:36:22;;;;;;;;;;;;;;;21.53;43.76;100535.63;104066;1291;62084;-83
2023/05/23 11:38:49;;;;;;;;;;;;;;;21.53;43.95;100532.75;104241;1288;62153;-83
2023/05/23 11:41:14;;;;;;;;;;;;;;;21.54;43.93;100531.44;103982;1286;62965;-83
2023/05/23 11:43:50;;;;;;;;;;;;;;;21.54;43.99;100527.69;103644;1294;62232;-83
2023/05/23 11:46:15;;;;;;;;;;;;;;;21.55;43.94;100526.91;103688;1292;62109;-83
2023/05/23 11:48:45;;;;;;;;;;;;;;;21.56;44.12;100523.46;103570;1288;62352;-84
2023/05/23 11:51:10;;;;;;;;;;;;;;;21.56;43.99;100522.05;103852;1288;73227;-83
2023/05/23 11:53:37;;;;;;;;;;;;;;;21.55;44.10;100519.36;103779;1292;62353;-83
2023/05/23 11:56:04;;;;;;;;;;;;;;;21.55;44.01;100516.34;103557;1288;62155;-83
2023/05/23 11:58:30;;;;;;;;;;;;;;;21.55;44.19;100525.45;103705;1288;62114;-82
2023/05/23 12:01:02;;;;;;;;;;;;;;;21.55;44.18;100519.52;103787;1292;62275;-82
2023/05/23 12:03:28;;;;;;;;;;;;;;;21.56;44.20;100520.19;103652;1292;74015;-82
2023/05/23 12:05:54;;;;;;;;;;;;;;;21.57;44.20;100519.46;103639;1286;63289;-83
2023/05/23 12:08:20;;;;;;;;;;;;;;;21.57;44.12;100512.46;103679;1288;62169;-83
2023/05/23 12:10:50;;;;;;;;;;;;;;;21.56;44.26;100508.72;103511;1288;63271;-84
2023/05/23 12:13:17;;;;;;;;;;;;;;;21.56;44.20;100503.68;103440;1288;76289;-84
2023/05/23 12:15:43;;;;;;;;;;;;;;;21.57;44.19;100501.89;103414;1291;62117;-83
2023/05/23 12:18:15;;;;;;;;;;;;;;;21.57;44.19;100501.33;103462;1286;62207;-84
2023/05/23 12:20:41;;;;;;;;;;;;;;;21.57;44.19;100499.73;103434;1287;73228;-83
2023/05/23 12:23:06;;;;;;;;;;;;;;;21.58;44.17;100499.16;103470;1291;62144;-83